createdAt,value
2017-04-23T00:00:30.442Z,1003.48
2017-04-23T00:01:30.477Z,1003.49
2017-04-23T00:02:30.510Z,1003.47
2017-04-23T00:03:30.543Z,1003.5
2017-04-23T00:04:30.575Z,1003.43
2017-04-23T00:05:30.611Z,1003.47
2017-04-23T00:06:30.642Z,1003.51
2017-04-23T00:07:30.675Z,1003.45
2017-04-23T00:08:30.710Z,1003.42
2017-04-23T00:09:30.743Z,1003.49
2017-04-23T00:10:30.775Z,1003.48
2017-04-23T00:11:30.809Z,1003.49
2017-04-23T00:12:30.842Z,1003.47
2017-04-23T00:13:30.876Z,1003.47
2017-04-23T00:14:30.908Z,1003.49
2017-04-23T00:15:30.941Z,1003.47
2017-04-23T00:16:30.979Z,1003.51
2017-04-23T00:17:31.009Z,1003.55
2017-04-23T00:18:31.042Z,1003.51
2017-04-23T00:19:31.076Z,1003.59
2017-04-23T00:20:31.108Z,1003.46
2017-04-23T00:21:31.142Z,1003.43
2017-04-23T00:22:31.175Z,1003.55
2017-04-23T00:23:31.211Z,1003.55
2017-04-23T00:24:31.241Z,1003.59
2017-04-23T00:25:31.274Z,1003.59
2017-04-23T00:26:31.308Z,1003.55
2017-04-23T00:27:31.340Z,1003.55
2017-04-23T00:28:31.375Z,1003.56
2017-04-23T00:29:31.407Z,1003.65
2017-04-23T00:30:31.440Z,1003.52
2017-04-23T00:31:31.475Z,1003.45
2017-04-23T00:32:31.506Z,1003.51
2017-04-23T00:33:31.541Z,1003.53
2017-04-23T00:34:31.576Z,1003.54
2017-04-23T00:35:31.607Z,1003.62
2017-04-23T00:36:31.639Z,1003.58
2017-04-23T00:37:31.672Z,1003.61
2017-04-23T00:38:31.707Z,1003.58
2017-04-23T00:39:31.739Z,1003.55
2017-04-23T00:40:31.773Z,1003.6
2017-04-23T00:41:31.807Z,1003.55
2017-04-23T00:42:31.839Z,1003.58
2017-04-23T00:43:31.873Z,1003.52
2017-04-23T00:44:31.908Z,1003.61
2017-04-23T00:45:31.940Z,1003.62
2017-04-23T00:46:31.972Z,1003.63
2017-04-23T00:47:32.007Z,1003.63
2017-04-23T00:48:32.039Z,1003.62
2017-04-23T00:49:32.071Z,1003.57
2017-04-23T00:50:32.104Z,1003.55
2017-04-23T00:51:32.137Z,1003.59
2017-04-23T00:52:32.171Z,1003.55
2017-04-23T00:53:32.205Z,1003.54
2017-04-23T00:54:32.238Z,1003.54
2017-04-23T00:55:32.269Z,1003.53
2017-04-23T00:56:32.303Z,1003.58
2017-04-23T00:57:32.337Z,1003.54
2017-04-23T00:58:32.368Z,1003.62
2017-04-23T00:59:32.401Z,1003.55
2017-04-23T01:00:32.435Z,1003.57
2017-04-23T01:01:32.470Z,1003.6
2017-04-23T01:02:32.502Z,1003.64
2017-04-23T01:03:32.558Z,1003.56
2017-04-23T01:04:32.575Z,1003.65
2017-04-23T01:05:32.601Z,1003.6
2017-04-23T01:06:32.635Z,1003.61
2017-04-23T01:07:32.668Z,1003.63
2017-04-23T01:08:32.700Z,1003.68
2017-04-23T01:09:32.734Z,1003.71
2017-04-23T01:10:32.767Z,1003.66
2017-04-23T01:11:32.800Z,1003.69
2017-04-23T01:12:32.833Z,1003.66
2017-04-23T01:13:32.866Z,1003.64
2017-04-23T01:14:32.898Z,1003.66
2017-04-23T01:15:32.930Z,1003.65
2017-04-23T01:16:32.964Z,1003.65
2017-04-23T01:17:32.997Z,1003.63
2017-04-23T01:18:33.031Z,1003.64
2017-04-23T01:19:33.064Z,1003.65
2017-04-23T01:20:33.096Z,1003.62
2017-04-23T01:21:33.128Z,1003.62
2017-04-23T01:22:33.162Z,1003.64
2017-04-23T01:23:33.193Z,1003.62
2017-04-23T01:24:33.225Z,1003.65
2017-04-23T01:25:33.259Z,1003.67
2017-04-23T01:26:33.293Z,1003.6
2017-04-23T01:27:33.324Z,1003.67
2017-04-23T01:28:33.357Z,1003.61
2017-04-23T01:29:33.390Z,1003.68
2017-04-23T01:30:33.423Z,1003.69
2017-04-23T01:31:33.455Z,1003.66
2017-04-23T01:32:33.489Z,1003.56
2017-04-23T01:33:33.521Z,1003.58
2017-04-23T01:34:33.556Z,1003.62
2017-04-23T01:35:33.587Z,1003.59
2017-04-23T01:36:33.620Z,1003.66
2017-04-23T01:37:33.653Z,1003.62
2017-04-23T01:38:33.691Z,1003.66
2017-04-23T01:39:33.723Z,1003.62
2017-04-23T01:40:33.752Z,1003.66
2017-04-23T01:41:33.784Z,1003.66
2017-04-23T01:42:33.817Z,1003.6
2017-04-23T01:43:33.849Z,1003.7
2017-04-23T01:44:33.883Z,1003.65
2017-04-23T01:45:33.916Z,1003.71
2017-04-23T01:46:33.947Z,1003.59
2017-04-23T01:47:33.981Z,1003.66
2017-04-23T01:48:34.015Z,1003.69
2017-04-23T01:49:34.049Z,1003.69
2017-04-23T01:50:34.082Z,1003.67
2017-04-23T01:51:34.114Z,1003.65
2017-04-23T01:52:34.145Z,1003.62
2017-04-23T01:53:34.179Z,1003.61
2017-04-23T01:54:34.210Z,1003.63
2017-04-23T01:55:34.243Z,1003.67
2017-04-23T01:56:34.276Z,1003.68
2017-04-23T01:57:34.310Z,1003.69
2017-04-23T01:58:34.342Z,1003.64
2017-04-23T01:59:34.376Z,1003.58
2017-04-23T02:00:34.407Z,1003.63
2017-04-23T02:01:34.439Z,1003.61
2017-04-23T02:02:34.473Z,1003.68
2017-04-23T02:03:34.505Z,1003.64
2017-04-23T02:04:34.538Z,1003.66
2017-04-23T02:05:34.571Z,1003.63
2017-04-23T02:06:34.603Z,1003.62
2017-04-23T02:07:34.637Z,1003.64
2017-04-23T02:08:34.669Z,1003.62
2017-04-23T02:09:34.702Z,1003.68
2017-04-23T02:10:34.735Z,1003.68
2017-04-23T02:11:34.766Z,1003.62
2017-04-23T02:12:34.800Z,1003.68
2017-04-23T02:13:34.834Z,1003.68
2017-04-23T02:14:34.867Z,1003.63
2017-04-23T02:15:34.898Z,1003.67
2017-04-23T02:16:34.931Z,1003.63
2017-04-23T02:17:34.965Z,1003.62
2017-04-23T02:18:34.997Z,1003.65
2017-04-23T02:19:35.030Z,1003.6
2017-04-23T02:20:35.064Z,1003.61
2017-04-23T02:21:35.098Z,1003.6
2017-04-23T02:22:35.129Z,1003.66
2017-04-23T02:23:35.163Z,1003.59
2017-04-23T02:24:35.194Z,1003.67
2017-04-23T02:25:35.227Z,1003.7
2017-04-23T02:26:35.261Z,1003.64
2017-04-23T02:27:35.292Z,1003.72
2017-04-23T02:28:35.327Z,1003.66
2017-04-23T02:29:35.366Z,1003.67
2017-04-23T02:30:35.391Z,1003.67
2017-04-23T02:31:35.423Z,1003.67
2017-04-23T02:32:35.458Z,1003.67
2017-04-23T02:33:35.489Z,1003.62
2017-04-23T02:34:35.521Z,1003.68
2017-04-23T02:35:35.555Z,1003.74
2017-04-23T02:36:35.589Z,1003.68
2017-04-23T02:37:35.623Z,1003.69
2017-04-23T02:38:35.654Z,1003.64
2017-04-23T02:39:35.688Z,1003.65
2017-04-23T02:40:35.719Z,1003.68
2017-04-23T02:41:35.754Z,1003.72
2017-04-23T02:42:35.784Z,1003.72
2017-04-23T02:43:35.819Z,1003.74
2017-04-23T02:44:35.850Z,1003.72
2017-04-23T02:45:35.884Z,1003.76
2017-04-23T02:46:35.917Z,1003.74
2017-04-23T02:47:35.949Z,1003.76
2017-04-23T02:48:35.982Z,1003.76
2017-04-23T02:49:36.015Z,1003.73
2017-04-23T02:50:36.047Z,1003.78
2017-04-23T02:51:36.079Z,1003.74
2017-04-23T02:52:36.112Z,1003.79
2017-04-23T02:53:36.144Z,1003.78
2017-04-23T02:54:36.177Z,1003.82
2017-04-23T02:55:36.209Z,1003.71
2017-04-23T02:56:36.243Z,1003.71
2017-04-23T02:57:36.276Z,1003.75
2017-04-23T02:58:36.308Z,1003.77
2017-04-23T02:59:36.340Z,1003.78
2017-04-23T03:00:36.374Z,1003.81
2017-04-23T03:01:36.407Z,1003.82
2017-04-23T03:02:36.438Z,1003.83
2017-04-23T03:03:36.472Z,1003.82
2017-04-23T03:04:36.506Z,1003.78
2017-04-23T03:05:36.537Z,1003.82
2017-04-23T03:06:36.569Z,1003.83
2017-04-23T03:07:36.601Z,1003.89
2017-04-23T03:08:36.635Z,1003.91
2017-04-23T03:09:36.666Z,1003.89
2017-04-23T03:10:36.701Z,1003.91
2017-04-23T03:11:36.731Z,1003.93
2017-04-23T03:12:36.766Z,1003.94
2017-04-23T03:13:36.797Z,1003.93
2017-04-23T03:14:36.832Z,1004.01
2017-04-23T03:15:36.863Z,1003.95
2017-04-23T03:16:36.896Z,1003.95
2017-04-23T03:17:36.928Z,1004.01
2017-04-23T03:18:36.961Z,1004
2017-04-23T03:19:36.993Z,1004.05
2017-04-23T03:20:37.037Z,1004.07
2017-04-23T03:21:37.058Z,1004.05
2017-04-23T03:22:37.104Z,1004.03
2017-04-23T03:23:37.138Z,1004.05
2017-04-23T03:24:37.158Z,1003.98
2017-04-23T03:25:37.189Z,1003.87
2017-04-23T03:26:37.233Z,1004.01
2017-04-23T03:27:37.256Z,1003.97
2017-04-23T03:28:37.287Z,1003.97
2017-04-23T03:29:37.321Z,1004
2017-04-23T03:30:37.353Z,1003.98
2017-04-23T03:31:37.385Z,1003.97
2017-04-23T03:32:37.419Z,1004.05
2017-04-23T03:33:37.451Z,1004.04
2017-04-23T03:34:37.483Z,1004.05
2017-04-23T03:35:37.517Z,1004.04
2017-04-23T03:36:37.548Z,1004
2017-04-23T03:37:37.583Z,1003.99
2017-04-23T03:38:37.614Z,1003.97
2017-04-23T03:39:37.647Z,1004
2017-04-23T03:40:37.679Z,1003.97
2017-04-23T03:41:37.713Z,1004.01
2017-04-23T03:42:37.743Z,1004.06
2017-04-23T03:43:37.777Z,1004.06
2017-04-23T03:44:37.810Z,1004.07
2017-04-23T03:45:37.842Z,1004.08
2017-04-23T03:46:37.874Z,1004.11
2017-04-23T03:47:37.908Z,1004.09
2017-04-23T03:48:37.940Z,1004.11
2017-04-23T03:49:37.974Z,1004.11
2017-04-23T03:50:38.007Z,1004.1
2017-04-23T03:51:38.038Z,1004.08
2017-04-23T03:52:38.072Z,1004.12
2017-04-23T03:53:38.105Z,1004.07
2017-04-23T03:54:38.137Z,1004.03
2017-04-23T03:55:38.171Z,1004.15
2017-04-23T03:56:38.203Z,1004.14
2017-04-23T03:57:38.235Z,1004.16
2017-04-23T03:58:38.269Z,1004.17
2017-04-23T03:59:38.301Z,1004.14
2017-04-23T04:00:38.334Z,1004.17
2017-04-23T04:01:38.365Z,1004.15
2017-04-23T04:02:38.398Z,1004.19
2017-04-23T04:03:38.432Z,1004.19
2017-04-23T04:04:38.463Z,1004.21
2017-04-23T04:05:38.496Z,1004.2
2017-04-23T04:06:38.531Z,1004.25
2017-04-23T04:07:38.564Z,1004.25
2017-04-23T04:08:38.594Z,1004.3
2017-04-23T04:09:38.628Z,1004.27
2017-04-23T04:10:38.662Z,1004.28
2017-04-23T04:11:38.695Z,1004.28
2017-04-23T04:12:38.728Z,1004.3
2017-04-23T04:13:38.761Z,1004.34
2017-04-23T04:14:38.795Z,1004.39
2017-04-23T04:15:38.826Z,1004.39
2017-04-23T04:16:38.859Z,1004.33
2017-04-23T04:17:38.892Z,1004.38
2017-04-23T04:18:38.924Z,1004.4
2017-04-23T04:19:38.958Z,1004.39
2017-04-23T04:20:38.990Z,1004.41
2017-04-23T04:21:39.028Z,1004.4
2017-04-23T04:22:39.053Z,1004.43
2017-04-23T04:23:39.089Z,1004.44
2017-04-23T04:24:39.120Z,1004.43
2017-04-23T04:25:39.154Z,1004.44
2017-04-23T04:26:39.186Z,1004.45
2017-04-23T04:27:39.218Z,1004.43
2017-04-23T04:28:39.254Z,1004.47
2017-04-23T04:29:39.285Z,1004.44
2017-04-23T04:30:39.317Z,1004.46
2017-04-23T04:31:39.350Z,1004.45
2017-04-23T04:32:39.383Z,1004.45
2017-04-23T04:33:39.415Z,1004.44
2017-04-23T04:34:39.448Z,1004.47
2017-04-23T04:35:39.480Z,1004.41
2017-04-23T04:36:39.514Z,1004.45
2017-04-23T04:37:39.547Z,1004.46
2017-04-23T04:38:39.578Z,1004.47
2017-04-23T04:39:39.613Z,1004.5
2017-04-23T04:40:39.645Z,1004.46
2017-04-23T04:41:39.678Z,1004.49
2017-04-23T04:42:39.711Z,1004.55
2017-04-23T04:43:39.744Z,1004.52
2017-04-23T04:44:39.776Z,1004.61
2017-04-23T04:45:39.808Z,1004.59
2017-04-23T04:46:39.841Z,1004.62
2017-04-23T04:47:39.876Z,1004.58
2017-04-23T04:48:39.906Z,1004.59
2017-04-23T04:49:39.940Z,1004.64
2017-04-23T04:50:39.974Z,1004.64
2017-04-23T04:51:40.005Z,1004.67
2017-04-23T04:52:40.039Z,1004.67
2017-04-23T04:53:40.071Z,1004.66
2017-04-23T04:54:40.105Z,1004.69
2017-04-23T04:55:40.137Z,1004.73
2017-04-23T04:56:40.180Z,1004.7
2017-04-23T04:57:40.204Z,1004.73
2017-04-23T04:58:40.237Z,1004.7
2017-04-23T04:59:40.269Z,1004.72
2017-04-23T05:00:40.301Z,1004.71
2017-04-23T05:01:40.335Z,1004.7
2017-04-23T05:02:40.370Z,1004.7
2017-04-23T05:03:40.401Z,1004.74
2017-04-23T05:04:40.435Z,1004.76
2017-04-23T05:05:40.468Z,1004.73
2017-04-23T05:06:40.499Z,1004.79
2017-04-23T05:07:40.534Z,1004.79
2017-04-23T05:08:40.566Z,1004.78
2017-04-23T05:09:40.600Z,1004.76
2017-04-23T05:10:40.632Z,1004.8
2017-04-23T05:11:40.670Z,1004.85
2017-04-23T05:12:40.700Z,1004.79
2017-04-23T05:13:40.732Z,1004.84
2017-04-23T05:14:40.764Z,1004.77
2017-04-23T05:15:40.798Z,1004.82
2017-04-23T05:16:40.832Z,1004.87
2017-04-23T05:17:40.865Z,1004.86
2017-04-23T05:18:40.898Z,1004.86
2017-04-23T05:19:40.930Z,1004.93
2017-04-23T05:20:40.965Z,1004.95
2017-04-23T05:21:40.996Z,1004.92
2017-04-23T05:22:41.031Z,1004.91
2017-04-23T05:23:41.064Z,1004.93
2017-04-23T05:24:41.096Z,1004.92
2017-04-23T05:25:41.130Z,1004.95
2017-04-23T05:26:41.164Z,1004.94
2017-04-23T05:27:41.197Z,1004.96
2017-04-23T05:28:41.229Z,1004.92
2017-04-23T05:29:41.263Z,1004.91
2017-04-23T05:30:41.297Z,1004.99
2017-04-23T05:31:41.329Z,1004.99
2017-04-23T05:32:41.362Z,1004.96
2017-04-23T05:33:41.397Z,1004.95
2017-04-23T05:34:41.429Z,1004.98
2017-04-23T05:35:41.464Z,1005
2017-04-23T05:36:41.497Z,1005.03
2017-04-23T05:37:41.529Z,1005.05
2017-04-23T05:38:41.565Z,1005.02
2017-04-23T05:39:41.597Z,1005.04
2017-04-23T05:40:41.631Z,1005.04
2017-04-23T05:41:41.664Z,1005.02
2017-04-23T05:42:41.700Z,1005.07
2017-04-23T05:43:41.733Z,1005.05
2017-04-23T05:44:41.767Z,1005.05
2017-04-23T05:45:41.800Z,1005.1
2017-04-23T05:46:41.836Z,1005.08
2017-04-23T05:47:41.870Z,1005.07
2017-04-23T05:48:41.905Z,1005.1
2017-04-23T05:49:41.936Z,1005.08
2017-04-23T05:50:41.969Z,1005.04
2017-04-23T05:51:42.004Z,1005.03
2017-04-23T05:52:42.040Z,1005.08
2017-04-23T05:53:42.074Z,1005.04
2017-04-23T05:54:42.106Z,1005.06
2017-04-23T05:55:42.142Z,1005.07
2017-04-23T05:56:42.175Z,1005.07
2017-04-23T05:57:42.211Z,1005.07
2017-04-23T05:58:42.244Z,1005.1
2017-04-23T05:59:42.278Z,1005.08
2017-04-23T06:00:42.313Z,1005.05
2017-04-23T06:01:42.347Z,1005.06
2017-04-23T06:02:42.382Z,1005.12
2017-04-23T06:03:42.416Z,1005.2
2017-04-23T06:04:42.451Z,1005.13
2017-04-23T06:05:42.485Z,1005.11
2017-04-23T06:06:42.520Z,1005.16
2017-04-23T06:07:42.555Z,1005.13
2017-04-23T06:08:42.589Z,1005.11
2017-04-23T06:09:42.623Z,1005.18
2017-04-23T06:10:42.659Z,1005.19
2017-04-23T06:11:42.694Z,1005.19
2017-04-23T06:12:42.728Z,1005.17
2017-04-23T06:13:42.764Z,1005.21
2017-04-23T06:14:42.799Z,1005.17
2017-04-23T06:15:42.835Z,1005.23
2017-04-23T06:16:42.868Z,1005.22
2017-04-23T06:17:42.908Z,1005.27
2017-04-23T06:18:42.939Z,1005.31
2017-04-23T06:19:42.975Z,1005.25
2017-04-23T06:20:43.010Z,1005.31
2017-04-23T06:21:43.048Z,1005.26
2017-04-23T06:22:43.080Z,1005.32
2017-04-23T06:23:43.117Z,1005.26
2017-04-23T06:24:43.151Z,1005.27
2017-04-23T06:25:43.189Z,1005.35
2017-04-23T06:26:43.224Z,1005.29
2017-04-23T06:27:43.260Z,1005.27
2017-04-23T06:28:43.298Z,1005.34
2017-04-23T06:29:43.332Z,1005.31
2017-04-23T06:30:43.368Z,1005.3
2017-04-23T06:31:43.403Z,1005.35
2017-04-23T06:32:43.440Z,1005.33
2017-04-23T06:33:43.476Z,1005.35
2017-04-23T06:34:43.512Z,1005.42
2017-04-23T06:35:43.548Z,1005.46
2017-04-23T06:36:43.583Z,1005.37
2017-04-23T06:37:43.622Z,1005.35
2017-04-23T06:38:43.657Z,1005.34
2017-04-23T06:39:43.693Z,1005.34
2017-04-23T06:40:43.730Z,1005.4
2017-04-23T06:41:43.767Z,1005.4
2017-04-23T06:42:43.805Z,1005.39
2017-04-23T06:43:43.842Z,1005.34
2017-04-23T06:44:43.878Z,1005.44
2017-04-23T06:45:43.915Z,1005.44
2017-04-23T06:46:43.952Z,1005.41
2017-04-23T06:47:43.989Z,1005.45
2017-04-23T06:48:44.026Z,1005.42
2017-04-23T06:49:44.062Z,1005.48
2017-04-23T06:50:44.098Z,1005.41
2017-04-23T06:51:44.136Z,1005.45
2017-04-23T06:52:44.172Z,1005.42
2017-04-23T06:53:44.212Z,1005.46
2017-04-23T06:54:44.246Z,1005.51
2017-04-23T06:55:44.285Z,1005.48
2017-04-23T06:56:44.319Z,1005.5
2017-04-23T06:57:44.360Z,1005.49
2017-04-23T06:58:44.394Z,1005.47
2017-04-23T06:59:44.431Z,1005.51
2017-04-23T07:00:44.466Z,1005.48
2017-04-23T07:01:44.503Z,1005.44
2017-04-23T07:02:44.540Z,1005.43
2017-04-23T07:03:44.578Z,1005.42
2017-04-23T07:04:44.612Z,1005.36
2017-04-23T07:05:44.650Z,1005.52
2017-04-23T07:06:44.687Z,1005.51
2017-04-23T07:07:44.722Z,1005.49
2017-04-23T07:08:44.759Z,1005.51
2017-04-23T07:09:44.796Z,1005.54
2017-04-23T07:10:44.833Z,1005.43
2017-04-23T07:11:44.869Z,1005.5
2017-04-23T07:12:44.908Z,1005.57
2017-04-23T07:13:44.945Z,1005.61
2017-04-23T07:14:44.979Z,1005.61
2017-04-23T07:15:45.018Z,1005.61
2017-04-23T07:16:45.055Z,1005.59
2017-04-23T07:17:45.093Z,1005.6
2017-04-23T07:18:45.131Z,1005.61
2017-04-23T07:19:45.171Z,1005.54
2017-04-23T07:20:45.207Z,1005.58
2017-04-23T07:21:45.247Z,1005.63
2017-04-23T07:22:45.284Z,1005.57
2017-04-23T07:23:45.322Z,1005.55
2017-04-23T07:24:46.498Z,1005.53
2017-04-23T07:25:46.626Z,1005.51
2017-04-23T07:26:46.543Z,1005.53
2017-04-23T07:27:47.427Z,1005.61
2017-04-23T07:28:46.267Z,1005.64
2017-04-23T07:29:45.554Z,1005.63
2017-04-23T07:30:45.592Z,1005.67
2017-04-23T07:31:45.630Z,1005.63
2017-04-23T07:32:45.669Z,1005.66
2017-04-23T07:33:45.705Z,1005.67
2017-04-23T07:34:45.743Z,1005.72
2017-04-23T07:35:45.780Z,1005.7
2017-04-23T07:36:45.818Z,1005.71
2017-04-23T07:37:45.857Z,1005.81
2017-04-23T07:38:45.894Z,1005.87
2017-04-23T07:39:45.932Z,1005.83
2017-04-23T07:40:45.970Z,1005.79
2017-04-23T07:41:46.008Z,1005.86
2017-04-23T07:42:46.044Z,1005.84
2017-04-23T07:43:46.081Z,1005.82
2017-04-23T07:44:46.120Z,1005.82
2017-04-23T07:45:46.158Z,1005.81
2017-04-23T07:46:46.194Z,1005.73
2017-04-23T07:47:46.233Z,1005.8
2017-04-23T07:48:46.270Z,1005.83
2017-04-23T07:49:46.309Z,1005.86
2017-04-23T07:50:46.345Z,1005.79
2017-04-23T07:51:46.379Z,1005.71
2017-04-23T07:52:46.416Z,1005.82
2017-04-23T07:53:46.455Z,1005.76
2017-04-23T07:54:46.487Z,1005.84
2017-04-23T07:55:46.525Z,1005.7
2017-04-23T07:56:46.561Z,1005.8
2017-04-23T07:57:46.604Z,1005.79
2017-04-23T07:58:46.633Z,1005.75
2017-04-23T07:59:46.667Z,1005.76
2017-04-23T08:00:46.704Z,1005.79
2017-04-23T08:01:46.742Z,1005.78
2017-04-23T08:02:46.775Z,1005.82
2017-04-23T08:03:46.812Z,1005.82
2017-04-23T08:04:46.847Z,1005.85
2017-04-23T08:05:46.880Z,1005.81
2017-04-23T08:06:46.918Z,1005.74
2017-04-23T08:07:46.954Z,1005.82
2017-04-23T08:08:46.992Z,1005.78
2017-04-23T08:09:47.024Z,1005.76
2017-04-23T08:10:47.061Z,1005.75
2017-04-23T08:11:47.096Z,1005.78
2017-04-23T08:12:47.134Z,1005.84
2017-04-23T08:13:47.173Z,1005.77
2017-04-23T08:14:47.214Z,1005.75
2017-04-23T08:15:47.240Z,1005.7
2017-04-23T08:16:47.277Z,1005.73
2017-04-23T08:17:47.314Z,1005.73
2017-04-23T08:18:47.349Z,1005.76
2017-04-23T08:19:47.385Z,1005.79
2017-04-23T08:20:47.421Z,1005.81
2017-04-23T08:21:47.457Z,1005.88
2017-04-23T08:22:47.493Z,1005.78
2017-04-23T08:23:47.530Z,1005.86
2017-04-23T08:24:47.566Z,1005.8
2017-04-23T08:25:47.603Z,1005.84
2017-04-23T08:26:47.641Z,1005.88
2017-04-23T08:27:47.677Z,1005.89
2017-04-23T08:28:47.712Z,1005.68
2017-04-23T08:29:47.751Z,1005.83
2017-04-23T08:30:47.788Z,1005.83
2017-04-23T08:31:47.828Z,1005.86
2017-04-23T08:32:47.865Z,1005.77
2017-04-23T08:33:47.902Z,1005.81
2017-04-23T08:34:47.940Z,1005.86
2017-04-23T08:35:47.978Z,1005.81
2017-04-23T08:36:48.016Z,1005.81
2017-04-23T08:37:48.054Z,1005.89
2017-04-23T08:38:48.090Z,1005.84
2017-04-23T08:39:48.128Z,1005.79
2017-04-23T08:40:48.166Z,1005.78
2017-04-23T08:41:48.205Z,1005.81
2017-04-23T08:42:48.242Z,1005.8
2017-04-23T08:43:48.282Z,1005.82
2017-04-23T08:44:48.319Z,1005.79
2017-04-23T08:45:48.357Z,1005.83
2017-04-23T08:46:48.391Z,1005.86
2017-04-23T08:47:48.432Z,1005.79
2017-04-23T08:48:48.468Z,1005.87
2017-04-23T08:49:48.503Z,1005.81
2017-04-23T08:50:48.541Z,1005.74
2017-04-23T08:51:48.576Z,1005.79
2017-04-23T08:52:48.614Z,1005.76
2017-04-23T08:53:48.651Z,1005.74
2017-04-23T08:54:48.688Z,1005.77
2017-04-23T08:55:48.724Z,1005.76
2017-04-23T08:56:48.759Z,1005.78
2017-04-23T08:57:48.798Z,1005.88
2017-04-23T08:58:48.834Z,1005.93
2017-04-23T08:59:48.870Z,1005.81
2017-04-23T09:00:48.907Z,1005.83
2017-04-23T09:01:48.943Z,1005.89
2017-04-23T09:02:48.983Z,1005.93
2017-04-23T09:03:49.022Z,1005.85
2017-04-23T09:04:49.061Z,1005.96
2017-04-23T09:05:49.098Z,1005.85
2017-04-23T09:06:49.137Z,1005.96
2017-04-23T09:07:49.178Z,1005.83
2017-04-23T09:08:49.218Z,1005.9
2017-04-23T09:09:49.260Z,1005.88
2017-04-23T09:10:49.303Z,1005.85
2017-04-23T09:11:49.344Z,1005.84
2017-04-23T09:12:49.385Z,1005.82
2017-04-23T09:13:49.428Z,1005.85
2017-04-23T09:14:49.472Z,1005.83
2017-04-23T09:15:49.515Z,1005.75
2017-04-23T09:16:49.562Z,1005.78
2017-04-23T09:17:49.607Z,1005.77
2017-04-23T09:18:49.650Z,1005.72
2017-04-23T09:19:49.694Z,1005.68
2017-04-23T09:20:49.739Z,1005.73
2017-04-23T09:21:49.783Z,1005.64
2017-04-23T09:22:49.825Z,1005.69
2017-04-23T09:23:49.868Z,1005.67
2017-04-23T09:24:49.911Z,1005.7
2017-04-23T09:25:49.953Z,1005.68
2017-04-23T09:26:49.996Z,1005.6
2017-04-23T09:27:50.036Z,1005.66
2017-04-23T09:28:50.076Z,1005.67
2017-04-23T09:29:50.117Z,1005.74
2017-04-23T09:30:50.158Z,1005.64
2017-04-23T09:31:50.197Z,1005.73
2017-04-23T09:32:50.239Z,1005.68
2017-04-23T09:33:50.279Z,1005.79
2017-04-23T09:34:50.318Z,1005.75
2017-04-23T09:35:50.358Z,1005.69
2017-04-23T09:36:50.395Z,1005.76
2017-04-23T09:37:50.435Z,1005.73
2017-04-23T09:38:50.473Z,1005.74
2017-04-23T09:39:50.511Z,1005.78
2017-04-23T09:40:50.549Z,1005.93
2017-04-23T09:41:50.589Z,1005.84
2017-04-23T09:42:50.627Z,1005.76
2017-04-23T09:43:50.669Z,1005.65
2017-04-23T09:44:50.708Z,1005.67
2017-04-23T09:45:50.747Z,1005.74
2017-04-23T09:46:50.787Z,1005.69
2017-04-23T09:47:50.827Z,1005.81
2017-04-23T09:48:50.868Z,1005.78
2017-04-23T09:49:50.911Z,1005.82
2017-04-23T09:50:50.953Z,1005.59
2017-04-23T09:51:50.994Z,1005.6
2017-04-23T09:52:51.037Z,1005.57
2017-04-23T09:53:51.079Z,1005.62
2017-04-23T09:54:51.124Z,1005.54
2017-04-23T09:55:51.164Z,1005.61
2017-04-23T09:56:51.207Z,1005.61
2017-04-23T09:57:51.249Z,1005.72
2017-04-23T09:58:51.290Z,1005.82
2017-04-23T09:59:51.331Z,1005.88
2017-04-23T10:00:51.372Z,1005.95
2017-04-23T10:01:51.413Z,1005.86
2017-04-23T10:02:51.452Z,1006.02
2017-04-23T10:03:51.492Z,1006.15
2017-04-23T10:04:51.533Z,1006.17
2017-04-23T10:05:51.571Z,1006.12
2017-04-23T10:06:51.611Z,1006.23
2017-04-23T10:07:51.649Z,1006.24
2017-04-23T10:08:51.689Z,1006.23
2017-04-23T10:09:51.726Z,1006.19
2017-04-23T10:10:51.763Z,1006.17
2017-04-23T10:11:51.803Z,1006.07
2017-04-23T10:12:51.839Z,1006.05
2017-04-23T10:13:51.875Z,1006.04
2017-04-23T10:14:51.914Z,1005.99
2017-04-23T10:15:51.950Z,1005.94
2017-04-23T10:16:51.988Z,1005.97
2017-04-23T10:17:52.025Z,1005.95
2017-04-23T10:18:52.063Z,1005.97
2017-04-23T10:19:52.098Z,1005.96
2017-04-23T10:20:52.137Z,1005.96
2017-04-23T10:21:52.174Z,1006.03
2017-04-23T10:22:52.211Z,1005.98
2017-04-23T10:23:52.250Z,1005.92
2017-04-23T10:24:52.288Z,1005.92
2017-04-23T10:25:52.326Z,1005.96
2017-04-23T10:26:52.366Z,1006.03
2017-04-23T10:27:52.406Z,1005.95
2017-04-23T10:28:52.445Z,1005.99
2017-04-23T10:29:52.487Z,1005.93
2017-04-23T10:30:52.528Z,1005.95
2017-04-23T10:31:52.569Z,1005.93
2017-04-23T10:32:52.613Z,1005.95
2017-04-23T10:33:52.658Z,1005.93
2017-04-23T10:34:52.702Z,1005.96
2017-04-23T10:35:52.743Z,1005.88
2017-04-23T10:36:52.788Z,1005.81
2017-04-23T10:37:52.833Z,1005.84
2017-04-23T10:38:52.877Z,1005.84
2017-04-23T10:39:52.922Z,1005.75
2017-04-23T10:40:52.964Z,1005.78
2017-04-23T10:41:53.007Z,1005.74
2017-04-23T10:42:53.049Z,1005.76
2017-04-23T10:43:53.091Z,1005.75
2017-04-23T10:44:53.133Z,1005.68
2017-04-23T10:45:53.175Z,1005.73
2017-04-23T10:46:53.214Z,1005.77
2017-04-23T10:47:53.255Z,1005.56
2017-04-23T10:48:53.294Z,1005.55
2017-04-23T10:49:53.335Z,1005.51
2017-04-23T10:50:53.373Z,1005.57
2017-04-23T10:51:53.414Z,1005.47
2017-04-23T10:52:53.454Z,1005.53
2017-04-23T10:53:53.500Z,1005.68
2017-04-23T10:54:53.539Z,1005.65
2017-04-23T10:55:53.572Z,1005.65
2017-04-23T10:56:53.641Z,1005.64
2017-04-23T10:57:53.652Z,1005.57
2017-04-23T10:58:53.695Z,1005.56
2017-04-23T10:59:53.735Z,1005.52
2017-04-23T11:00:53.777Z,1005.51
2017-04-23T11:01:53.820Z,1005.47
2017-04-23T11:02:53.862Z,1005.47
2017-04-23T11:03:53.907Z,1005.48
2017-04-23T11:04:53.949Z,1005.48
2017-04-23T11:05:53.991Z,1005.48
2017-04-23T11:06:54.037Z,1005.47
2017-04-23T11:07:54.081Z,1005.49
2017-04-23T11:08:54.124Z,1005.47
2017-04-23T11:09:54.165Z,1005.53
2017-04-23T11:10:54.211Z,1005.47
2017-04-23T11:11:54.253Z,1005.47
2017-04-23T11:12:54.296Z,1005.25
2017-04-23T11:13:54.341Z,1005.38
2017-04-23T11:14:54.385Z,1005.36
2017-04-23T11:15:54.426Z,1005.34
2017-04-23T11:16:54.472Z,1005.33
2017-04-23T11:17:54.515Z,1005.32
2017-04-23T11:18:54.557Z,1005.16
2017-04-23T11:19:54.600Z,1005.26
2017-04-23T11:20:54.644Z,1005.02
2017-04-23T11:21:54.685Z,1005.27
2017-04-23T11:22:54.727Z,1005.29
2017-04-23T11:23:54.768Z,1005.33
2017-04-23T11:24:54.811Z,1005.31
2017-04-23T11:25:54.854Z,1005.31
2017-04-23T11:26:54.894Z,1005.19
2017-04-23T11:27:54.934Z,1005.31
2017-04-23T11:28:54.978Z,1005.15
2017-04-23T11:29:55.020Z,1005.21
2017-04-23T11:30:55.059Z,1005.1
2017-04-23T11:31:55.100Z,1005.09
2017-04-23T11:32:55.146Z,1005.14
2017-04-23T11:33:55.182Z,1005.15
2017-04-23T11:34:55.221Z,1005.23
2017-04-23T11:35:55.263Z,1005.21
2017-04-23T11:36:55.301Z,1005.45
2017-04-23T11:37:55.343Z,1005.4
2017-04-23T11:38:55.381Z,1005.54
2017-04-23T11:39:55.430Z,1005.71
2017-04-23T11:40:55.461Z,1005.61
2017-04-23T11:41:55.499Z,1005.72
2017-04-23T11:42:55.537Z,1005.59
2017-04-23T11:43:55.577Z,1005.75
2017-04-23T11:44:55.615Z,1005.53
2017-04-23T11:45:55.653Z,1005.66
2017-04-23T11:46:55.691Z,1005.72
2017-04-23T11:47:55.730Z,1005.63
2017-04-23T11:48:55.766Z,1005.68
2017-04-23T11:49:55.803Z,1005.69
2017-04-23T11:50:55.839Z,1005.59
2017-04-23T11:51:55.879Z,1005.7
2017-04-23T11:52:55.914Z,1005.65
2017-04-23T11:53:55.950Z,1005.47
2017-04-23T11:54:55.988Z,1005.43
2017-04-23T11:55:56.022Z,1005.35
2017-04-23T11:56:56.058Z,1005.4
2017-04-23T11:57:56.096Z,1005.33
2017-04-23T11:58:56.132Z,1005.36
2017-04-23T11:59:56.182Z,1005.39
2017-04-23T12:00:56.202Z,1005.27
2017-04-23T12:01:56.239Z,1005.29
2017-04-23T12:02:56.274Z,1005.28
2017-04-23T12:03:56.312Z,1005.32
2017-04-23T12:04:56.364Z,1005.3
2017-04-23T12:05:56.399Z,1005.25
2017-04-23T12:06:56.449Z,1005.19
2017-04-23T12:07:56.457Z,1005.24